createdAt,value
2019-03-28T00:01:27.293Z,80.01
2019-03-28T00:03:53.594Z,80.07
2019-03-28T00:06:19.899Z,80.23
2019-03-28T00:08:46.264Z,80.45
2019-03-28T00:11:12.515Z,80.73
2019-03-28T00:13:38.821Z,80.75
2019-03-28T00:16:05.146Z,80.76
2019-03-28T00:18:31.603Z,80.81
2019-03-28T00:20:57.912Z,80.90
2019-03-28T00:23:24.221Z,81.04
2019-03-28T00:25:50.524Z,81.11
2019-03-28T00:28:16.838Z,81.10
2019-03-28T00:30:43.149Z,81.29
2019-03-28T00:33:09.455Z,81.37
2019-03-28T00:35:35.758Z,81.46
2019-03-28T00:38:02.067Z,81.54
2019-03-28T00:40:28.374Z,81.65
2019-03-28T00:42:54.685Z,81.69
2019-03-28T00:45:21.006Z,81.76
2019-03-28T00:47:47.378Z,81.78
2019-03-28T00:50:13.707Z,81.81
2019-03-28T00:52:40.033Z,81.89
2019-03-28T00:55:06.347Z,82.09
2019-03-28T00:57:32.654Z,82.14
2019-03-28T00:59:58.963Z,82.19
2019-03-28T01:02:25.270Z,82.26
2019-03-28T01:04:52.091Z,82.27
2019-03-28T01:07:17.886Z,82.28
2019-03-28T01:09:44.188Z,82.43
2019-03-28T01:12:10.496Z,82.52
2019-03-28T01:14:36.798Z,82.60
2019-03-28T01:17:03.539Z,82.76
2019-03-28T01:19:29.850Z,82.91
2019-03-28T01:21:56.163Z,82.95
2019-03-28T01:24:22.463Z,82.95
2019-03-28T01:26:57.281Z,83.20
2019-03-28T01:29:15.067Z,83.23
2019-03-28T01:31:41.367Z,83.34
2019-03-28T01:34:08.132Z,83.33
2019-03-28T01:36:33.988Z,83.41
2019-03-28T01:39:00.299Z,83.45
2019-03-28T01:41:26.604Z,83.49
2019-03-28T01:43:52.906Z,83.59
2019-03-28T01:46:19.206Z,83.71
2019-03-28T01:48:45.509Z,83.68
2019-03-28T01:51:11.812Z,83.75
2019-03-28T01:53:38.230Z,83.62
2019-03-28T01:56:04.424Z,83.51
2019-03-28T01:58:30.729Z,83.44
2019-03-28T02:00:57.042Z,83.34
2019-03-28T02:03:23.388Z,83.26
2019-03-28T02:05:49.695Z,82.95
2019-03-28T02:08:15.999Z,82.53
2019-03-28T02:10:42.307Z,82.04
2019-03-28T02:13:08.615Z,81.70
2019-03-28T02:15:34.918Z,81.51
2019-03-28T02:18:01.221Z,81.17
2019-03-28T02:20:27.568Z,80.99
2019-03-28T02:22:53.963Z,80.82
2019-03-28T02:25:20.348Z,80.66
2019-03-28T02:27:46.588Z,80.58
2019-03-28T02:30:13.140Z,80.45
2019-03-28T02:32:39.470Z,80.29
2019-03-28T02:35:05.785Z,80.27
2019-03-28T02:37:32.080Z,80.20
2019-03-28T02:39:58.399Z,80.13
2019-03-28T02:42:24.707Z,80.09
2019-03-28T02:44:51.017Z,79.95
2019-03-28T02:47:17.339Z,79.78
2019-03-28T02:49:43.636Z,79.65
2019-03-28T02:52:09.939Z,79.62
2019-03-28T02:54:36.265Z,79.61
2019-03-28T02:57:02.565Z,79.58
2019-03-28T02:59:28.873Z,79.54
2019-03-28T03:01:55.182Z,79.57
2019-03-28T03:04:21.491Z,79.64
2019-03-28T03:06:47.802Z,79.70
2019-03-28T03:09:14.110Z,79.82
2019-03-28T03:11:42.835Z,79.88
2019-03-28T03:14:06.717Z,79.93
2019-03-28T03:16:33.065Z,80.10
2019-03-28T03:18:59.839Z,80.17
2019-03-28T03:21:25.695Z,80.22
2019-03-28T03:23:52.000Z,80.24
2019-03-28T03:26:18.298Z,80.19
2019-03-28T03:28:44.628Z,80.34
2019-03-28T03:31:10.939Z,80.43
2019-03-28T03:33:37.894Z,80.38
2019-03-28T03:36:03.554Z,80.46
2019-03-28T03:38:29.888Z,80.59
2019-03-28T03:40:56.186Z,80.77
2019-03-28T03:43:23.582Z,80.96
2019-03-28T03:45:49.808Z,81.07
2019-03-28T03:48:16.113Z,81.10
2019-03-28T03:50:42.419Z,81.11
2019-03-28T03:53:08.727Z,81.11
2019-03-28T03:55:35.028Z,81.13
2019-03-28T03:58:14.569Z,81.15
2019-03-28T04:00:27.787Z,81.27
2019-03-28T04:02:54.089Z,81.23
2019-03-28T04:05:20.398Z,81.20
2019-03-28T04:07:46.700Z,81.21
2019-03-28T04:10:13.055Z,81.22
2019-03-28T04:12:39.361Z,81.20
2019-03-28T04:15:05.670Z,81.26
2019-03-28T04:17:31.975Z,81.20
2019-03-28T04:19:58.761Z,81.29
2019-03-28T04:22:24.589Z,81.32
2019-03-28T04:24:50.898Z,81.26
2019-03-28T04:27:17.202Z,81.37
2019-03-28T04:29:43.507Z,81.31
2019-03-28T04:32:09.851Z,81.19
2019-03-28T04:34:36.168Z,81.22
2019-03-28T04:37:02.464Z,81.23
2019-03-28T04:39:28.773Z,81.24
2019-03-28T04:41:55.075Z,81.32
2019-03-28T04:44:21.723Z,81.53
2019-03-28T04:46:47.698Z,81.58
2019-03-28T04:49:15.676Z,81.71
2019-03-28T04:51:40.382Z,81.80
2019-03-28T04:54:09.620Z,81.97
2019-03-28T04:56:33.021Z,82.06
2019-03-28T04:58:59.354Z,82.27
2019-03-28T05:01:25.709Z,82.47
2019-03-28T05:03:51.980Z,82.78
2019-03-28T05:06:18.300Z,83.02
2019-03-28T05:08:44.603Z,83.40
2019-03-28T05:11:10.911Z,83.60
2019-03-28T05:13:37.217Z,84.03
2019-03-28T05:16:03.544Z,84.32
2019-03-28T05:18:29.856Z,84.60
2019-03-28T05:20:56.162Z,85.10
2019-03-28T05:23:22.463Z,85.59
2019-03-28T05:25:48.771Z,86.10
2019-03-28T05:28:15.075Z,86.77
2019-03-28T05:30:41.406Z,87.45
2019-03-28T05:33:07.720Z,88.09
2019-03-28T05:35:34.023Z,88.75
2019-03-28T05:38:00.336Z,89.39
2019-03-28T05:40:26.660Z,89.95
2019-03-28T05:42:52.969Z,90.56
2019-03-28T05:45:19.284Z,91.16
2019-03-28T05:47:45.611Z,91.85
2019-03-28T05:50:11.915Z,92.57
2019-03-28T05:52:38.219Z,96.54
2019-03-28T05:55:05.470Z,100.00
2019-03-28T05:57:30.837Z,100.00
2019-03-28T05:59:57.143Z,95.70
2019-03-28T06:02:24.318Z,87.08
2019-03-28T06:04:49.793Z,85.85
2019-03-28T06:07:16.095Z,83.29
2019-03-28T06:09:42.839Z,79.36
2019-03-28T06:12:09.145Z,76.22
2019-03-28T06:14:35.455Z,75.04
2019-03-28T06:17:01.769Z,74.33
2019-03-28T06:19:28.071Z,73.26
2019-03-28T06:21:55.076Z,73.24
2019-03-28T06:24:21.380Z,72.79
2019-03-28T06:26:50.037Z,72.13
2019-03-28T06:29:23.676Z,70.57
2019-03-28T06:31:40.369Z,70.24
2019-03-28T06:34:06.686Z,69.27
2019-03-28T06:36:32.995Z,68.36
2019-03-28T06:38:59.348Z,68.32
2019-03-28T06:41:25.653Z,68.22
2019-03-28T06:43:51.962Z,67.21
2019-03-28T06:46:18.271Z,66.36
2019-03-28T06:48:44.583Z,66.34
2019-03-28T06:51:10.886Z,66.67
2019-03-28T06:53:37.302Z,65.78
2019-03-28T06:56:03.501Z,65.61
2019-03-28T06:58:29.862Z,65.27
2019-03-28T07:00:56.172Z,65.53
2019-03-28T07:03:22.475Z,66.28
2019-03-28T07:05:48.785Z,67.10
2019-03-28T07:08:15.092Z,67.92
2019-03-28T07:10:41.448Z,68.09
2019-03-28T07:13:07.749Z,67.63
2019-03-28T07:15:36.610Z,67.71
2019-03-28T07:18:00.395Z,65.48
2019-03-28T07:20:26.706Z,64.09
2019-03-28T07:22:53.025Z,64.87
2019-03-28T07:25:19.325Z,63.92
2019-03-28T07:27:45.632Z,64.55
2019-03-28T07:30:11.947Z,63.67
2019-03-28T07:32:38.595Z,64.68
2019-03-28T07:35:04.927Z,64.78
2019-03-28T07:37:31.256Z,65.13
2019-03-28T07:39:57.562Z,64.70
2019-03-28T07:42:23.867Z,64.57
2019-03-28T07:44:50.180Z,65.84
2019-03-28T07:47:16.471Z,65.59
2019-03-28T07:49:42.781Z,66.17
2019-03-28T07:52:09.085Z,66.85
2019-03-28T07:54:35.407Z,67.25
2019-03-28T07:57:01.713Z,67.32
2019-03-28T07:59:28.166Z,67.42
2019-03-28T08:01:54.472Z,67.96
2019-03-28T08:04:20.843Z,66.52
2019-03-28T08:06:50.212Z,65.35
2019-03-28T08:09:13.456Z,65.30
2019-03-28T08:11:39.795Z,63.54
2019-03-28T08:14:06.311Z,63.59
2019-03-28T08:16:32.661Z,63.36
2019-03-28T08:18:58.962Z,63.59
2019-03-28T08:21:25.421Z,63.29
2019-03-28T08:23:51.728Z,63.99
2019-03-28T08:26:18.117Z,62.75
2019-03-28T08:28:44.427Z,62.08
2019-03-28T08:31:10.737Z,61.02
2019-03-28T08:33:37.045Z,61.06
2019-03-28T08:36:03.371Z,60.71
2019-03-28T08:38:29.680Z,60.69
2019-03-28T08:40:56.114Z,61.45
2019-03-28T08:43:25.281Z,61.08
2019-03-28T08:45:51.605Z,61.32
2019-03-28T08:48:18.010Z,60.20
2019-03-28T08:50:44.290Z,59.56
2019-03-28T08:53:10.597Z,58.99
2019-03-28T08:55:36.905Z,59.05
2019-03-28T08:58:03.202Z,57.64
2019-03-28T09:03:13.463Z,56.68
2019-03-28T09:05:39.773Z,57.20
2019-03-28T09:08:06.105Z,56.86
2019-03-28T09:10:32.402Z,57.77
2019-03-28T09:15:44.260Z,57.48
2019-03-28T09:18:09.499Z,56.88
2019-03-28T09:20:35.841Z,56.28
2019-03-28T09:23:02.151Z,54.19
2019-03-28T09:25:28.492Z,53.21
2019-03-28T09:27:54.815Z,53.80
2019-03-28T09:30:21.118Z,54.74
2019-03-28T09:32:47.436Z,53.40
2019-03-28T09:35:13.745Z,53.14
2019-03-28T09:37:40.053Z,52.76
2019-03-28T09:40:06.368Z,53.37
2019-03-28T09:42:32.696Z,52.15
2019-03-28T09:44:59.018Z,53.11
2019-03-28T09:47:25.329Z,53.27
2019-03-28T09:49:51.642Z,52.80
2019-03-28T09:52:17.989Z,51.30
2019-03-28T09:54:44.260Z,52.02
2019-03-28T09:57:10.597Z,49.72
2019-03-28T09:59:36.913Z,48.61
2019-03-28T10:02:03.359Z,47.75
2019-03-28T10:04:29.601Z,47.85
2019-03-28T10:06:55.908Z,47.27
2019-03-28T10:09:22.221Z,47.00
2019-03-28T10:11:48.531Z,47.49
2019-03-28T10:14:15.899Z,46.69
2019-03-28T10:16:42.203Z,46.41
2019-03-28T10:19:08.512Z,45.89
2019-03-28T10:21:37.550Z,46.88
2019-03-28T10:24:01.425Z,46.69
2019-03-28T10:26:27.731Z,47.05
2019-03-28T10:28:54.040Z,45.75
2019-03-28T10:31:20.420Z,45.32
2019-03-28T10:33:46.726Z,43.98
2019-03-28T10:36:13.029Z,44.28
2019-03-28T10:38:39.344Z,45.73
2019-03-28T10:41:05.648Z,44.51
2019-03-28T10:43:31.978Z,45.20
2019-03-28T10:45:58.283Z,43.94
2019-03-28T10:48:24.611Z,43.44
2019-03-28T10:50:50.914Z,43.97
2019-03-28T10:53:17.246Z,44.76
2019-03-28T10:55:43.551Z,44.00
2019-03-28T10:58:18.423Z,43.88
2019-03-28T11:00:36.167Z,44.03
2019-03-28T11:03:02.548Z,43.02
2019-03-28T11:05:28.785Z,43.86
2019-03-28T11:07:55.091Z,43.54
2019-03-28T11:10:21.412Z,43.55
2019-03-28T11:12:47.716Z,43.08
2019-03-28T11:15:14.046Z,43.47
2019-03-28T11:17:40.349Z,43.65
2019-03-28T11:20:06.661Z,42.40
2019-03-28T11:22:32.968Z,40.60
2019-03-28T11:24:59.278Z,40.86
2019-03-28T11:27:25.597Z,41.10
2019-03-28T11:29:52.024Z,39.81
2019-03-28T11:32:18.754Z,39.50
2019-03-28T11:34:44.661Z,40.43
2019-03-28T11:37:24.923Z,41.56
2019-03-28T11:39:37.276Z,42.72
2019-03-28T11:42:03.607Z,41.86
2019-03-28T11:44:29.921Z,43.38
2019-03-28T11:46:56.236Z,43.62
2019-03-28T11:49:22.549Z,42.58
2019-03-28T11:51:48.851Z,42.11
2019-03-28T11:54:15.166Z,42.57
2019-03-28T11:56:41.475Z,42.44
2019-03-28T11:59:07.813Z,42.96
2019-03-28T12:01:34.121Z,42.89
2019-03-28T12:04:00.423Z,43.24
2019-03-28T12:06:26.740Z,43.50
2019-03-28T12:08:55.851Z,41.80
2019-03-28T12:11:19.386Z,41.62
2019-03-28T12:13:45.693Z,41.76
2019-03-28T12:16:12.001Z,42.51
2019-03-28T12:18:38.310Z,42.87
2019-03-28T12:21:04.641Z,42.39
2019-03-28T12:23:30.943Z,43.04
2019-03-28T12:25:57.253Z,42.51
2019-03-28T12:28:23.619Z,41.66
2019-03-28T12:30:49.870Z,40.19
2019-03-28T12:33:16.176Z,39.63
2019-03-28T12:35:42.488Z,40.35
2019-03-28T12:38:08.800Z,39.85
2019-03-28T12:40:35.106Z,40.33
2019-03-28T12:43:01.443Z,39.86
2019-03-28T12:45:27.751Z,40.94
2019-03-28T12:47:54.057Z,41.09
2019-03-28T12:50:20.366Z,40.04
2019-03-28T12:52:46.672Z,39.84
2019-03-28T12:55:12.983Z,39.98
2019-03-28T12:57:39.283Z,39.93
2019-03-28T13:00:06.762Z,40.08
2019-03-28T13:02:32.169Z,39.94
2019-03-28T13:04:58.300Z,39.43
2019-03-28T13:07:25.496Z,39.57
2019-03-28T13:09:50.927Z,39.73
2019-03-28T13:12:17.235Z,40.06
2019-03-28T13:14:43.543Z,39.71
2019-03-28T13:17:09.847Z,40.25
2019-03-28T13:19:36.156Z,40.12
2019-03-28T13:22:02.550Z,40.94
2019-03-28T13:24:28.771Z,41.12
2019-03-28T13:26:55.082Z,40.30
2019-03-28T13:29:21.383Z,40.87
2019-03-28T13:31:47.734Z,39.66
2019-03-28T13:34:14.039Z,38.77
2019-03-28T13:36:40.343Z,38.79
2019-03-28T13:39:06.656Z,38.98
2019-03-28T13:41:32.964Z,38.90
2019-03-28T13:43:59.277Z,39.02
2019-03-28T13:46:25.635Z,39.55
2019-03-28T13:48:51.963Z,39.90
2019-03-28T13:51:19.314Z,39.18
2019-03-28T13:53:45.635Z,38.55
2019-03-28T13:56:11.943Z,38.60
2019-03-28T13:58:38.827Z,38.79
2019-03-28T14:01:04.600Z,38.60
2019-03-28T14:03:30.903Z,39.39
2019-03-28T14:05:57.219Z,39.66
2019-03-28T14:08:23.568Z,39.45
2019-03-28T14:10:49.878Z,38.47
2019-03-28T14:13:16.184Z,38.79
2019-03-28T14:15:45.317Z,38.75
2019-03-28T14:18:11.621Z,39.52
2019-03-28T14:20:37.931Z,39.93
2019-03-28T14:23:04.235Z,39.04
2019-03-28T14:25:30.549Z,38.90
2019-03-28T14:27:56.869Z,39.79
2019-03-28T14:30:23.177Z,39.88
2019-03-28T14:32:53.514Z,40.27
2019-03-28T14:35:16.073Z,40.24
2019-03-28T14:37:42.407Z,39.71
2019-03-28T14:40:08.711Z,40.18
2019-03-28T14:42:35.053Z,39.69
2019-03-28T14:45:01.372Z,39.15
2019-03-28T14:47:27.677Z,37.89
2019-03-28T14:49:53.987Z,37.95
2019-03-28T14:52:20.298Z,37.86
2019-03-28T14:54:46.608Z,36.76
2019-03-28T14:57:12.963Z,38.43
2019-03-28T14:59:39.271Z,40.05
2019-03-28T15:02:05.578Z,40.86
2019-03-28T15:04:32.033Z,46.53
2019-03-28T15:06:59.625Z,41.65
2019-03-28T15:09:24.761Z,38.99
2019-03-28T15:11:51.073Z,37.34
2019-03-28T15:14:17.383Z,39.13
2019-03-28T15:16:43.692Z,36.33
2019-03-28T15:19:10.000Z,36.00
2019-03-28T15:21:36.303Z,37.05
2019-03-28T15:24:02.612Z,37.97
2019-03-28T15:26:30.239Z,38.31
2019-03-28T15:28:55.225Z,38.87
2019-03-28T15:31:21.686Z,38.91
2019-03-28T15:33:47.850Z,38.87
2019-03-28T15:36:14.420Z,38.11
2019-03-28T15:38:40.774Z,38.02
2019-03-28T15:41:07.085Z,38.20
2019-03-28T15:43:33.394Z,38.36
2019-03-28T15:45:59.763Z,38.39
2019-03-28T15:48:26.013Z,38.17
2019-03-28T15:50:52.378Z,38.34
2019-03-28T15:53:18.686Z,38.59
2019-03-28T15:55:44.993Z,38.63
2019-03-28T15:58:22.525Z,38.94
2019-03-28T16:00:37.608Z,39.24
2019-03-28T16:03:03.915Z,39.61
2019-03-28T16:05:30.219Z,39.61
2019-03-28T16:07:59.188Z,39.74
2019-03-28T16:10:22.839Z,39.95
2019-03-28T16:12:49.147Z,39.86
2019-03-28T16:15:16.522Z,39.91
2019-03-28T16:17:42.837Z,40.10
2019-03-28T16:20:09.144Z,40.04
2019-03-28T16:22:35.452Z,39.97
2019-03-28T16:25:01.758Z,40.90
2019-03-28T16:27:28.134Z,40.29
2019-03-28T16:29:54.587Z,39.64
2019-03-28T16:32:20.768Z,39.51
2019-03-28T16:34:47.114Z,38.62
2019-03-28T16:37:13.447Z,38.98
2019-03-28T16:39:39.755Z,38.89
2019-03-28T16:42:06.092Z,38.93
2019-03-28T16:44:32.367Z,39.12
2019-03-28T16:46:58.680Z,38.68
2019-03-28T16:49:24.995Z,38.13
2019-03-28T16:51:51.820Z,38.46
2019-03-28T16:54:17.642Z,38.88
2019-03-28T16:56:43.943Z,39.46
2019-03-28T16:59:10.256Z,39.46
2019-03-28T17:01:36.563Z,39.55
2019-03-28T17:04:02.878Z,39.84
2019-03-28T17:06:29.185Z,40.01
2019-03-28T17:08:55.487Z,40.40
2019-03-28T17:11:21.800Z,40.13
2019-03-28T17:13:48.102Z,39.94
2019-03-28T17:16:14.451Z,40.54
2019-03-28T17:18:40.750Z,40.25
2019-03-28T17:21:07.106Z,40.45
2019-03-28T17:23:33.476Z,39.78
2019-03-28T17:25:59.888Z,39.88
2019-03-28T17:28:26.232Z,39.69
2019-03-28T17:30:53.187Z,39.81
2019-03-28T17:33:18.881Z,39.95
2019-03-28T17:35:45.235Z,40.02
2019-03-28T17:38:11.603Z,40.14
2019-03-28T17:40:37.948Z,40.04
2019-03-28T17:43:04.290Z,39.92
2019-03-28T17:45:30.635Z,40.29
2019-03-28T17:47:56.974Z,42.42
2019-03-28T17:50:23.270Z,43.10
2019-03-28T17:52:49.706Z,42.55
2019-03-28T17:55:16.048Z,42.77
2019-03-28T17:57:42.392Z,42.32
2019-03-28T18:00:08.735Z,41.94
2019-03-28T18:02:35.076Z,41.78
2019-03-28T18:05:09.182Z,41.79
2019-03-28T18:07:27.795Z,42.31
2019-03-28T18:09:53.989Z,42.42
2019-03-28T18:12:20.308Z,42.58
2019-03-28T18:14:46.636Z,42.52
2019-03-28T18:17:12.940Z,41.93
2019-03-28T18:19:39.246Z,42.26
2019-03-28T18:22:05.555Z,41.95
2019-03-28T18:24:31.877Z,41.95
2019-03-28T18:26:58.187Z,42.16
2019-03-28T18:29:24.491Z,42.50
2019-03-28T18:31:52.614Z,42.55
2019-03-28T18:34:17.120Z,42.45
2019-03-28T18:36:43.487Z,44.21
2019-03-28T18:39:09.807Z,48.01
2019-03-28T18:41:36.199Z,45.74
2019-03-28T18:44:02.572Z,44.09
2019-03-28T18:46:28.878Z,43.02
2019-03-28T18:48:55.180Z,44.19
2019-03-28T18:51:21.484Z,45.15
2019-03-28T18:53:47.797Z,43.56
2019-03-28T18:56:14.155Z,43.34
2019-03-28T18:58:40.570Z,43.30
2019-03-28T19:01:06.879Z,43.33
2019-03-28T19:03:33.201Z,42.62
2019-03-28T19:05:59.715Z,43.00
2019-03-28T19:08:26.017Z,43.00
2019-03-28T19:10:52.320Z,43.18
2019-03-28T19:13:18.626Z,42.67
2019-03-28T19:15:44.935Z,43.20
2019-03-28T19:18:11.242Z,43.18
2019-03-28T19:20:37.547Z,42.81
2019-03-28T19:23:06.995Z,45.16
2019-03-28T19:25:30.188Z,48.05
2019-03-28T19:27:56.501Z,47.43
2019-03-28T19:30:22.801Z,45.46
2019-03-28T19:32:49.149Z,44.05
2019-03-28T19:35:15.402Z,44.83
2019-03-28T19:37:41.947Z,45.31
2019-03-28T19:40:08.266Z,44.83
2019-03-28T19:42:34.706Z,44.57
2019-03-28T19:45:01.045Z,44.01
2019-03-28T19:47:28.735Z,43.79
2019-03-28T19:49:53.650Z,43.99
2019-03-28T19:52:19.989Z,43.77
2019-03-28T19:54:46.310Z,43.68
2019-03-28T19:57:13.178Z,43.75
2019-03-28T19:59:38.923Z,42.29
2019-03-28T20:02:05.239Z,42.79
2019-03-28T20:04:31.723Z,41.87
2019-03-28T20:06:58.052Z,42.12
2019-03-28T20:09:24.439Z,42.26
2019-03-28T20:11:50.743Z,40.90
2019-03-28T20:14:17.106Z,40.48
2019-03-28T20:16:43.416Z,40.80
2019-03-28T20:19:09.730Z,41.56
2019-03-28T20:21:36.063Z,41.20
2019-03-28T20:24:02.381Z,41.86
2019-03-28T20:26:29.755Z,41.39
2019-03-28T20:28:55.444Z,41.54
2019-03-28T20:31:21.765Z,41.13
2019-03-28T20:33:48.074Z,42.92
2019-03-28T20:36:36.437Z,43.15
2019-03-28T20:38:40.706Z,42.76
2019-03-28T20:41:07.067Z,42.54
2019-03-28T20:43:33.377Z,42.80
2019-03-28T20:45:59.680Z,42.35
2019-03-28T20:48:26.219Z,42.19
2019-03-28T20:50:52.527Z,42.39
2019-03-28T20:53:18.835Z,42.07
2019-03-28T20:55:45.236Z,42.27
2019-03-28T20:58:11.469Z,42.25
2019-03-28T21:00:38.919Z,42.66
2019-03-28T21:03:04.092Z,42.36
2019-03-28T21:05:30.393Z,42.60
2019-03-28T21:07:56.736Z,43.12
2019-03-28T21:10:23.046Z,43.40
2019-03-28T21:12:49.409Z,43.17
2019-03-28T21:15:15.710Z,42.34
2019-03-28T21:17:42.034Z,42.71
2019-03-28T21:20:08.331Z,42.42
2019-03-28T21:22:34.637Z,42.66
2019-03-28T21:25:01.860Z,42.91
2019-03-28T21:27:28.164Z,42.69
2019-03-28T21:29:54.486Z,42.98
2019-03-28T21:32:20.874Z,43.08
2019-03-28T21:34:47.210Z,43.43
2019-03-28T21:37:13.521Z,43.60
2019-03-28T21:39:40.324Z,43.50
2019-03-28T21:42:07.384Z,43.30
2019-03-28T21:44:32.561Z,43.28
2019-03-28T21:46:58.915Z,42.69
2019-03-28T21:49:25.181Z,42.92
2019-03-28T21:51:51.491Z,42.80
2019-03-28T21:54:17.834Z,43.47
2019-03-28T21:56:44.158Z,43.57
2019-03-28T21:59:10.467Z,43.70
2019-03-28T22:01:36.801Z,44.12
2019-03-28T22:04:03.106Z,44.34
2019-03-28T22:06:42.096Z,44.12
2019-03-28T22:08:55.722Z,43.96
2019-03-28T22:11:22.025Z,43.76
2019-03-28T22:13:48.326Z,43.65
2019-03-28T22:16:14.631Z,43.58
2019-03-28T22:18:40.938Z,44.02
2019-03-28T22:21:07.243Z,43.06
2019-03-28T22:23:33.592Z,43.92
2019-03-28T22:25:59.899Z,44.19
2019-03-28T22:28:26.264Z,44.08
2019-03-28T22:30:52.578Z,44.24
2019-03-28T22:33:18.895Z,43.88
2019-03-28T22:35:45.197Z,44.10
2019-03-28T22:38:11.499Z,44.24
2019-03-28T22:40:37.880Z,44.21
2019-03-28T22:43:04.267Z,43.87
2019-03-28T22:45:30.595Z,43.92
2019-03-28T22:48:09.788Z,44.40
2019-03-28T22:50:23.953Z,44.55
2019-03-28T22:52:49.551Z,44.48
2019-03-28T22:55:15.878Z,44.08
2019-03-28T22:57:42.182Z,43.96
2019-03-28T23:00:08.482Z,44.62
2019-03-28T23:02:34.801Z,44.68
2019-03-28T23:05:01.110Z,44.39
2019-03-28T23:07:27.431Z,45.18
2019-03-28T23:09:53.735Z,45.36
2019-03-28T23:12:20.066Z,45.40
2019-03-28T23:14:46.366Z,45.00
2019-03-28T23:17:12.695Z,45.23
2019-03-28T23:19:38.970Z,45.50
2019-03-28T23:22:05.273Z,45.59
2019-03-28T23:24:31.582Z,45.46
2019-03-28T23:26:57.878Z,45.47
2019-03-28T23:29:24.187Z,45.50
2019-03-28T23:31:50.814Z,45.12
2019-03-28T23:34:16.827Z,45.75
2019-03-28T23:36:43.145Z,45.66
2019-03-28T23:39:09.683Z,45.47
2019-03-28T23:41:35.986Z,45.37
2019-03-28T23:44:02.303Z,45.26
2019-03-28T23:46:28.621Z,44.95
2019-03-28T23:48:54.922Z,45.30
2019-03-28T23:51:21.273Z,45.33
2019-03-28T23:53:47.578Z,44.89
2019-03-28T23:56:14.018Z,45.12
2019-03-28T23:58:40.325Z,46.52
